Time;durP1;ratioP1;P1;durP2;ratioP2;P2;SDS_P1;SDS_P2;PMS_P1;PMS_P2;Temp;Humidity;BMP_temperature;BMP_pressure;BME280_temperature;BME280_humidity;BME280_pressure;Samples;Min_cycle;Max_cycle;Signal;HPM_P1;HPM_P2
2023/05/10 05:17:54;;;;;;;0.60;0.60;;;13.30;99.90;;;;;;5042497;28;20237;-93
2023/05/10 05:45:08;;;;;;;3.38;0.80;;;12.90;99.90;;;;;;4996238;28;20239;-89
2023/05/10 06:03:41;;;;;;;2.22;0.70;;;12.60;99.90;;;;;;5100866;28;20218;-92
2023/05/10 06:36:38;;;;;;;3.10;0.90;;;13.30;99.90;;;;;;4955307;29;20260;-93
2023/05/10 06:42:14;;;;;;;1.55;1.17;;;13.40;99.90;;;;;;4902209;28;20205;-89
2023/05/10 06:44:41;;;;;;;2.88;2.08;;;13.30;99.90;;;;;;4972026;28;20280;-90
2023/05/10 06:47:08;;;;;;;1.77;1.00;;;13.40;99.90;;;;;;5008824;28;20209;-92
2023/05/10 06:49:36;;;;;;;3.92;1.10;;;13.40;99.90;;;;;;5051478;28;20197;-87
2023/05/10 06:52:20;;;;;;;3.03;1.30;;;13.40;99.90;;;;;;5067567;28;20287;-89
2023/05/10 06:54:52;;;;;;;1.08;0.98;;;13.50;99.90;;;;;;5052729;28;20205;-88
2023/05/10 06:57:22;;;;;;;1.40;1.10;;;13.60;99.90;;;;;;5052206;28;20200;-89
2023/05/10 06:59:55;;;;;;;2.33;1.20;;;13.70;99.90;;;;;;5067687;28;20201;-87
2023/05/10 07:13:09;;;;;;;2.15;1.30;;;13.90;99.90;;;;;;5068201;28;20232;-90
2023/05/10 07:15:36;;;;;;;1.55;1.25;;;13.90;99.90;;;;;;5050395;28;20197;-93
2023/05/10 07:21:05;;;;;;;4.35;1.67;;;14.00;99.90;;;;;;5063256;28;20854;-89
2023/05/10 07:23:33;;;;;;;3.70;2.65;;;14.10;99.90;;;;;;5065877;28;20565;-91
2023/05/10 07:28:43;;;;;;;4.15;3.13;;;14.20;99.90;;;;;;5075467;28;20201;-92
2023/05/10 07:48:15;;;;;;;1.17;1.10;;;15.50;97.00;;;;;;5069844;28;20684;-91
2023/05/10 07:50:42;;;;;;;7.72;6.13;;;15.60;97.00;;;;;;5069113;28;20250;-94
2023/05/10 07:53:09;;;;;;;4.03;2.33;;;15.90;96.40;;;;;;5051643;28;20303;-92
2023/05/10 07:59:06;;;;;;;5.15;2.13;;;16.00;94.70;;;;;;5057248;28;20255;-93
2023/05/10 08:13:23;;;;;;;1.13;1.02;;;17.00;91.90;;;;;;5049527;28;20293;-92
2023/05/10 08:16:13;;;;;;;2.35;1.08;;;17.00;90.80;;;;;;5027240;28;20194;-93
2023/05/10 08:18:41;;;;;;;4.80;1.40;;;16.80;91.90;;;;;;5045015;28;20219;-91
2023/05/10 08:21:11;;;;;;;4.00;1.20;;;17.00;90.80;;;;;;5020000;28;20198;-91
2023/05/10 08:23:38;;;;;;;1.20;1.10;;;17.00;91.20;;;;;;5018404;28;20207;-91
2023/05/10 08:28:47;;;;;;;1.13;1.00;;;17.00;90.90;;;;;;5009375;28;20205;-90
2023/05/10 08:34:00;;;;;;;1.90;1.10;;;17.10;84.80;;;;;;5024894;28;20214;-90
2023/05/10 08:36:27;;;;;;;0.98;0.90;;;17.20;87.40;;;;;;5033313;28;20252;-90
2023/05/10 08:38:55;;;;;;;0.93;0.80;;;16.70;83.80;;;;;;5027111;28;20202;-86
2023/05/10 08:41:24;;;;;;;1.20;1.00;;;16.50;87.70;;;;;;5009832;28;20199;-87
2023/05/10 08:43:52;;;;;;;1.08;1.00;;;16.20;89.00;;;;;;5013513;28;20194;-88
2023/05/10 08:46:22;;;;;;;2.08;1.10;;;16.10;91.20;;;;;;5033099;28;20209;-87
2023/05/10 08:48:54;;;;;;;2.58;0.95;;;15.80;90.80;;;;;;5017611;28;20211;-88
2023/05/10 08:54:12;;;;;;;2.00;1.17;;;15.30;92.30;;;;;;5024171;28;20248;-89
2023/05/10 08:59:20;;;;;;;0.88;0.85;;;15.20;93.60;;;;;;4992583;28;20554;-93
2023/05/10 09:02:31;;;;;;;2.28;1.00;;;15.20;93.90;;;;;;5041718;28;20201;-94
2023/05/10 09:05:37;;;;;;;1.10;1.00;;;15.30;94.00;;;;;;5015438;28;20278;-92
2023/05/10 09:22:37;;;;;;;1.38;1.00;;;15.80;93.80;;;;;;5012998;28;20203;-91
2023/05/10 09:28:00;;;;;;;1.38;0.77;;;17.40;79.00;;;;;;5036045;28;20199;-92
2023/05/10 09:30:35;;;;;;;3.10;0.95;;;17.20;78.80;;;;;;5037139;28;20206;-92
2023/05/10 09:33:06;;;;;;;1.33;0.80;;;17.30;77.90;;;;;;5036446;28;20221;-90
2023/05/10 09:56:38;;;;;;;1.40;0.80;;;16.70;88.90;;;;;;5012626;28;20181;-91
2023/05/10 10:07:08;;;;;;;1.95;1.08;;;17.60;79.10;;;;;;5013999;28;20213;-92
2023/05/10 10:12:21;;;;;;;1.27;0.90;;;18.50;62.10;;;;;;4989679;28;20224;-91
2023/05/10 10:49:08;;;;;;;6.65;5.97;;;18.80;70.00;;;;;;5025403;28;20578;-88
2023/05/10 10:51:38;;;;;;;3.08;1.40;;;19.50;57.00;;;;;;5027083;28;20253;-88
2023/05/10 10:54:10;;;;;;;18.75;16.88;;;19.80;55.00;;;;;;5016925;28;20211;-89
2023/05/10 10:56:37;;;;;;;4.53;1.25;;;19.70;51.60;;;;;;5031607;28;20249;-88
2023/05/10 10:59:04;;;;;;;5.90;1.60;;;19.80;46.10;;;;;;5032149;28;20206;-87
2023/05/10 11:01:35;;;;;;;1.88;1.63;;;19.70;41.90;;;;;;5025630;28;20559;-87
2023/05/10 11:04:21;;;;;;;3.03;1.70;;;19.50;40.60;;;;;;5008020;28;20244;-89
2023/05/10 11:06:48;;;;;;;6.50;4.60;;;19.10;45.60;;;;;;5010663;28;20697;-89
2023/05/10 11:09:15;;;;;;;1.92;1.48;;;18.60;45.20;;;;;;5012930;28;20212;-85
2023/05/10 11:11:55;;;;;;;2.78;2.08;;;18.20;45.50;;;;;;5008432;28;20191;-86
2023/05/10 11:14:23;;;;;;;3.03;1.42;;;17.70;51.50;;;;;;5009176;28;20210;-86
2023/05/10 11:16:54;;;;;;;2.60;2.40;;;17.50;59.80;;;;;;5014831;28;20664;-93
2023/05/10 11:37:52;;;;;;;2.10;1.45;;;15.40;97.00;;;;;;4992111;28;20262;-90
2023/05/10 11:40:19;;;;;;;3.50;1.52;;;15.30;97.50;;;;;;4991047;28;20644;-92
2023/05/10 11:48:10;;;;;;;2.55;1.27;;;14.90;96.90;;;;;;4991804;28;20203;-89
2023/05/10 11:50:38;;;;;;;3.60;1.67;;;14.60;97.10;;;;;;4986546;28;20196;-92
2023/05/10 11:53:05;;;;;;;6.07;2.10;;;14.30;98.20;;;;;;4997540;28;20227;-92
2023/05/10 11:55:35;;;;;;;2.40;1.92;;;14.00;99.30;;;;;;4994288;28;20283;-89
2023/05/10 11:58:03;;;;;;;4.78;2.35;;;13.80;99.90;;;;;;4992124;28;20290;-89
2023/05/10 12:00:38;;;;;;;6.00;2.17;;;13.60;99.90;;;;;;4990013;28;20289;-91
2023/05/10 12:03:05;;;;;;;6.20;2.58;;;13.50;99.90;;;;;;4991184;28;21171;-90
2023/05/10 12:05:34;;;;;;;2.63;2.20;;;13.50;99.90;;;;;;4992040;28;20649;-92
2023/05/10 12:11:07;;;;;;;2.30;1.75;;;13.50;99.90;;;;;;4987057;28;20195;-91
2023/05/10 12:16:37;;;;;;;3.13;1.30;;;13.40;99.90;;;;;;4992556;28;21012;-90
2023/05/10 12:19:05;;;;;;;4.32;1.40;;;13.30;99.90;;;;;;4995742;28;20283;-89
2023/05/10 12:21:47;;;;;;;1.55;1.40;;;13.30;99.90;;;;;;4994768;28;20200;-91
2023/05/10 12:24:17;;;;;;;4.47;1.45;;;13.30;99.90;;;;;;4993267;28;20200;-89
2023/05/10 12:26:48;;;;;;;3.38;1.50;;;13.30;99.90;;;;;;4992982;28;20232;-87
2023/05/10 12:29:16;;;;;;;2.95;1.48;;;13.40;99.90;;;;;;4992595;28;20215;-87
2023/05/10 12:31:54;;;;;;;3.13;1.48;;;13.30;99.90;;;;;;4992932;28;20199;-89
2023/05/10 12:34:25;;;;;;;2.50;1.60;;;13.20;99.90;;;;;;4987555;28;20885;-87
2023/05/10 12:36:59;;;;;;;5.22;1.60;;;13.10;99.90;;;;;;4992447;28;20197;-87
2023/05/10 12:39:43;;;;;;;3.55;1.50;;;13.30;99.90;;;;;;4998645;28;20202;-88
2023/05/10 12:42:11;;;;;;;2.60;1.20;;;13.30;99.90;;;;;;4989730;28;20218;-88
2023/05/10 12:44:39;;;;;;;2.15;1.45;;;13.50;99.90;;;;;;4992932;28;20714;-88
2023/05/10 12:47:08;;;;;;;2.53;1.50;;;13.60;99.90;;;;;;4993139;28;20207;-90
2023/05/10 13:24:36;;;;;;;1.75;1.10;;;14.20;99.60;;;;;;758127;23;20500;-92
2023/05/10 13:27:04;;;;;;;2.78;1.50;;;14.30;99.60;;;;;;5043646;28;20222;-91
2023/05/10 13:35:24;;;;;;;11.52;9.32;;;14.00;99.90;;;;;;5033647;28;20231;-90
2023/05/10 13:37:53;;;;;;;17.48;13.80;;;14.00;99.90;;;;;;5044592;28;20198;-93
2023/05/10 13:46:24;;;;;;;2.35;1.58;;;14.00;99.90;;;;;;5051352;28;20251;-88
2023/05/10 13:48:53;;;;;;;4.30;1.58;;;14.00;99.90;;;;;;5042669;28;20631;-91
2023/05/10 13:51:20;;;;;;;2.65;1.55;;;13.90;99.90;;;;;;5040189;28;20317;-89
2023/05/10 13:53:50;;;;;;;20.98;17.58;;;13.90;99.90;;;;;;5042898;28;20221;-92
2023/05/10 14:02:57;;;;;;;4.35;1.73;;;13.90;99.90;;;;;;5021448;28;20213;-91
2023/05/10 14:05:25;;;;;;;6.30;4.85;;;13.80;99.90;;;;;;5032468;28;20190;-90
2023/05/10 14:07:52;;;;;;;11.35;8.23;;;13.70;99.90;;;;;;5048237;28;20206;-90
2023/05/10 14:10:19;;;;;;;18.73;15.00;;;13.70;99.90;;;;;;5032243;28;20225;-90
2023/05/10 14:12:47;;;;;;;12.00;9.75;;;13.80;99.90;;;;;;5050389;28;20253;-88
2023/05/10 14:15:21;;;;;;;1.95;1.58;;;13.70;99.90;;;;;;5017069;28;20197;-90
2023/05/10 14:18:11;;;;;;;3.00;1.40;;;13.70;99.90;;;;;;5032773;28;20217;-92
2023/05/10 14:20:57;;;;;;;2.22;1.42;;;13.70;99.90;;;;;;5041816;28;20301;-91
2023/05/10 14:23:25;;;;;;;3.40;2.67;;;13.80;99.90;;;;;;5049262;28;20207;-87
2023/05/10 14:25:53;;;;;;;3.35;2.60;;;13.80;99.90;;;;;;5028682;28;20198;-90
2023/05/10 14:28:23;;;;;;;2.80;1.80;;;13.80;99.90;;;;;;5045661;28;20564;-90
2023/05/10 14:30:59;;;;;;;4.03;2.78;;;13.70;99.90;;;;;;5042468;28;20203;-91
2023/05/10 14:36:59;;;;;;;3.15;1.67;;;13.90;99.90;;;;;;4986458;28;20260;-93
2023/05/10 14:44:57;;;;;;;3.08;1.80;;;13.90;99.90;;;;;;5391478;22;20240;-94
2023/05/10 15:41:43;;;;;;;3.83;1.30;;;13.30;99.90;;;;;;4913868;29;20185;-96
2023/05/10 15:50:00;;;;;;;2.22;1.23;;;13.10;99.90;;;;;;4876071;29;20216;-95
2023/05/10 15:53:12;;;;;;;2.38;1.90;;;13.00;99.90;;;;;;4919559;29;20313;-94
2023/05/10 15:56:15;;;;;;;12.52;9.55;;;12.90;99.90;;;;;;4914460;29;20308;-90
2023/05/10 16:01:24;;;;;;;24.65;20.17;;;12.90;99.90;;;;;;4981165;28;20275;-88
2023/05/10 16:03:51;;;;;;;37.95;30.20;;;12.90;99.90;;;;;;5027333;28;20201;-88
2023/05/10 16:06:20;;;;;;;4.72;3.95;;;12.90;99.90;;;;;;5049927;28;20570;-88
2023/05/10 16:08:47;;;;;;;2.30;1.90;;;12.80;99.90;;;;;;5027596;28;20202;-89
2023/05/10 16:11:14;;;;;;;4.28;3.08;;;12.70;99.90;;;;;;5010716;28;20253;-89
2023/05/10 16:13:43;;;;;;;15.27;11.60;;;12.50;99.90;;;;;;5030731;28;20228;-91
2023/05/10 16:16:10;;;;;;;2.08;1.63;;;12.70;99.90;;;;;;5009147;28;20215;-92
2023/05/10 16:18:37;;;;;;;16.48;12.45;;;12.70;99.90;;;;;;5049880;28;20221;-91
2023/05/10 16:21:05;;;;;;;5.53;3.03;;;12.70;99.90;;;;;;5046193;28;20667;-91
2023/05/10 16:23:32;;;;;;;8.18;4.68;;;12.70;99.90;;;;;;5024002;28;20252;-92
2023/05/10 16:25:59;;;;;;;4.85;3.80;;;12.70;99.90;;;;;;5048286;28;20213;-92
2023/05/10 16:28:37;;;;;;;6.45;5.60;;;12.70;99.90;;;;;;5040239;28;20760;-93
2023/05/10 16:34:23;;;;;;;10.18;7.65;;;12.80;99.90;;;;;;5030157;28;20309;-92
2023/05/10 16:36:50;;;;;;;6.13;5.20;;;12.80;99.90;;;;;;5022511;28;20244;-91
2023/05/10 16:41:45;;;;;;;5.20;4.28;;;12.80;99.90;;;;;;5005665;28;20208;-96
2023/05/10 16:44:12;;;;;;;7.57;5.35;;;12.70;99.90;;;;;;5430428;23;20260;-96
2023/05/10 16:49:22;;;;;;;2.15;1.63;;;12.60;99.90;;;;;;5031902;28;20198;-95
2023/05/10 16:51:49;;;;;;;9.85;6.13;;;12.60;99.90;;;;;;5049773;28;20243;-94
2023/05/10 17:00:52;;;;;;;3.97;3.50;;;12.70;99.90;;;;;;5028427;28;20209;-95
2023/05/10 17:04:19;;;;;;;3.40;1.75;;;12.70;99.90;;;;;;5008946;28;20203;-94
2023/05/10 17:09:28;;;;;;;3.00;2.05;;;12.40;99.90;;;;;;4992410;28;20203;-92
2023/05/10 17:12:16;;;;;;;3.97;2.67;;;12.40;99.90;;;;;;5021493;28;20206;-93
2023/05/10 17:20:00;;;;;;;3.13;2.20;;;12.10;99.90;;;;;;5339938;23;20234;-92
2023/05/10 17:25:35;;;;;;;1.50;1.40;;;11.90;99.90;;;;;;5027777;28;20203;-92
2023/05/10 17:28:02;;;;;;;4.32;1.50;;;11.80;99.90;;;;;;5034593;28;20638;-89
2023/05/10 17:30:31;;;;;;;4.28;2.13;;;11.70;99.90;;;;;;5028674;28;20203;-93
2023/05/10 17:32:59;;;;;;;4.28;2.60;;;11.60;99.90;;;;;;5039569;28;20285;-88
2023/05/10 17:35:27;;;;;;;3.13;1.40;;;11.50;99.90;;;;;;5039007;28;20291;-88
2023/05/10 17:37:56;;;;;;;3.25;2.53;;;11.50;99.90;;;;;;5043209;28;20289;-90
2023/05/10 17:40:24;;;;;;;3.85;2.80;;;11.60;99.90;;;;;;5049271;28;20202;-91
2023/05/10 17:42:52;;;;;;;3.65;1.90;;;11.60;99.90;;;;;;5031017;28;20232;-91
2023/05/10 17:45:19;;;;;;;3.50;2.13;;;11.70;99.90;;;;;;5060220;28;20233;-92
2023/05/10 18:05:11;;;;;;;2.60;1.30;;;11.30;99.90;;;;;;5052765;28;20288;-95
2023/05/10 18:18:26;;;;;;;2.40;1.75;;;11.20;99.90;;;;;;5167651;23;20234;-89
2023/05/10 18:20:57;;;;;;;2.90;2.20;;;11.20;99.90;;;;;;5041667;28;20208;-92
2023/05/10 18:23:24;;;;;;;3.78;2.35;;;11.40;99.90;;;;;;5035060;28;20206;-88
2023/05/10 18:25:51;;;;;;;1.90;1.30;;;11.40;99.90;;;;;;5049758;28;20226;-89
2023/05/10 18:28:18;;;;;;;1.98;1.10;;;11.40;99.90;;;;;;5040776;28;20202;-87
2023/05/10 18:30:46;;;;;;;2.15;1.95;;;11.30;99.90;;;;;;5031759;28;20210;-87
2023/05/10 18:33:14;;;;;;;3.80;1.92;;;11.30;99.90;;;;;;5044333;28;20198;-87
2023/05/10 18:35:43;;;;;;;4.50;1.92;;;11.30;99.90;;;;;;5053132;28;20218;-87
2023/05/10 18:38:11;;;;;;;2.10;1.90;;;11.20;99.90;;;;;;5018633;28;20233;-88
2023/05/10 18:40:39;;;;;;;2.13;1.40;;;11.40;99.90;;;;;;5043293;28;20229;-86
2023/05/10 18:43:07;;;;;;;2.70;2.08;;;11.40;99.90;;;;;;5033204;28;20201;-87
2023/05/10 18:49:01;;;;;;;2.35;2.15;;;11.40;99.90;;;;;;5042131;28;20304;-87
2023/05/10 18:55:15;;;;;;;2.33;1.85;;;11.40;99.90;;;;;;5053876;28;20248;-85
2023/05/10 18:58:19;;;;;;;1.88;1.40;;;11.30;99.90;;;;;;5056452;28;20273;-88
2023/05/10 19:00:46;;;;;;;2.60;1.70;;;11.20;99.90;;;;;;5050922;28;20199;-87
2023/05/10 19:03:13;;;;;;;2.25;1.45;;;11.10;99.90;;;;;;5053008;28;20201;-87
2023/05/10 19:05:40;;;;;;;2.80;2.05;;;11.10;99.90;;;;;;5051890;28;20202;-88
2023/05/10 19:08:07;;;;;;;2.88;1.98;;;11.10;99.90;;;;;;5045480;28;20198;-87
2023/05/10 19:10:35;;;;;;;1.98;1.35;;;11.10;99.90;;;;;;5051927;28;20801;-87
2023/05/10 19:13:02;;;;;;;4.55;1.50;;;11.20;99.90;;;;;;5046439;28;20199;-88
2023/05/10 19:15:29;;;;;;;3.25;1.40;;;11.20;99.90;;;;;;5040704;28;20233;-89
2023/05/10 19:26:35;;;;;;;1.70;1.58;;;11.00;99.90;;;;;;5037895;28;20186;-87
2023/05/10 19:32:25;;;;;;;1.48;1.27;;;11.10;99.90;;;;;;5025936;28;20194;-88
2023/05/10 19:35:20;;;;;;;2.92;2.20;;;11.10;99.90;;;;;;5042714;28;20224;-89
2023/05/10 19:37:48;;;;;;;2.22;1.50;;;11.00;99.90;;;;;;5005569;28;20198;-88
2023/05/10 19:40:16;;;;;;;2.22;2.03;;;11.10;99.90;;;;;;5050903;28;20205;-88
2023/05/10 19:42:44;;;;;;;4.80;1.90;;;11.00;99.90;;;;;;5038490;28;20226;-88
2023/05/10 19:45:14;;;;;;;2.20;2.00;;;11.10;99.90;;;;;;5035853;28;20554;-88
2023/05/10 19:47:41;;;;;;;3.13;1.75;;;11.10;99.90;;;;;;5037236;28;20194;-88
2023/05/10 19:50:09;;;;;;;3.50;1.90;;;11.10;99.90;;;;;;5029182;28;20209;-89
2023/05/10 19:52:36;;;;;;;3.58;2.30;;;10.90;99.90;;;;;;5029717;28;20206;-88
2023/05/10 19:55:04;;;;;;;2.63;1.85;;;11.00;99.90;;;;;;5034909;28;20614;-88
2023/05/10 19:57:31;;;;;;;2.72;2.10;;;10.90;99.90;;;;;;5021169;28;20201;-89
2023/05/10 19:59:59;;;;;;;4.43;2.30;;;10.80;99.90;;;;;;5027858;28;20209;-89
2023/05/10 20:02:37;;;;;;;3.85;2.25;;;10.90;99.90;;;;;;5039044;28;20733;-90
2023/05/10 20:05:04;;;;;;;4.28;2.00;;;11.00;99.90;;;;;;5016012;28;20210;-89
2023/05/10 20:07:32;;;;;;;2.28;1.77;;;11.00;99.90;;;;;;5033684;28;20651;-90
2023/05/10 20:09:59;;;;;;;4.00;1.92;;;11.10;99.90;;;;;;5042235;28;20302;-89
2023/05/10 20:12:27;;;;;;;4.82;1.80;;;11.00;99.90;;;;;;5037888;28;20199;-89
2023/05/10 20:14:54;;;;;;;2.65;1.88;;;10.90;99.90;;;;;;5009366;28;20222;-90
2023/05/10 20:17:22;;;;;;;2.90;2.00;;;11.00;99.90;;;;;;5015585;28;20686;-90
2023/05/10 20:19:49;;;;;;;2.63;2.10;;;11.00;99.90;;;;;;5034215;28;20537;-90
2023/05/10 20:22:16;;;;;;;5.60;2.20;;;11.00;99.90;;;;;;5025258;28;20205;-89
2023/05/10 20:24:43;;;;;;;4.22;2.20;;;11.10;99.90;;;;;;5033541;28;20194;-89
2023/05/10 20:27:10;;;;;;;4.00;2.00;;;11.00;99.90;;;;;;5022726;28;20198;-89
2023/05/10 20:29:37;;;;;;;3.92;2.25;;;11.00;99.90;;;;;;5020451;28;20253;-90
2023/05/10 20:32:04;;;;;;;6.25;2.05;;;11.00;99.90;;;;;;5015457;28;20206;-90
2023/05/10 20:34:34;;;;;;;3.53;1.90;;;11.00;99.90;;;;;;5034050;28;20226;-89
2023/05/10 20:37:00;;;;;;;2.50;1.88;;;11.00;99.90;;;;;;5034429;28;20218;-88
2023/05/10 20:39:28;;;;;;;2.70;1.70;;;10.90;99.90;;;;;;5037576;28;20202;-90
2023/05/10 20:41:57;;;;;;;2.25;1.60;;;10.90;99.90;;;;;;5034577;28;20198;-90
2023/05/10 20:44:24;;;;;;;1.67;1.50;;;10.70;99.90;;;;;;5026402;28;20341;-90
2023/05/10 20:46:51;;;;;;;2.17;1.40;;;10.70;99.90;;;;;;5022887;28;20282;-90
2023/05/10 20:49:18;;;;;;;2.08;1.58;;;10.80;99.90;;;;;;5034766;28;20204;-88
2023/05/10 20:51:47;;;;;;;2.00;1.80;;;10.80;99.90;;;;;;5034553;28;20225;-88
2023/05/10 20:54:15;;;;;;;1.90;1.55;;;10.80;99.90;;;;;;5000724;28;20293;-87
2023/05/10 20:56:53;;;;;;;2.22;1.70;;;10.80;99.90;;;;;;5032937;28;20652;-87
2023/05/10 20:59:21;;;;;;;3.53;1.80;;;10.80;99.90;;;;;;5030444;28;20606;-88
2023/05/10 21:01:48;;;;;;;2.60;1.90;;;10.80;99.90;;;;;;5031293;28;20227;-88
2023/05/10 21:04:15;;;;;;;3.70;1.98;;;10.70;99.90;;;;;;5039943;28;20237;-87
2023/05/10 21:06:43;;;;;;;3.40;2.00;;;10.80;99.90;;;;;;5024731;28;20203;-88
2023/05/10 21:09:15;;;;;;;2.95;1.63;;;10.80;99.90;;;;;;5020024;28;20556;-88
2023/05/10 21:11:42;;;;;;;2.13;1.92;;;10.80;99.90;;;;;;4997743;28;20222;-88
2023/05/10 21:14:10;;;;;;;4.03;1.65;;;10.60;99.90;;;;;;5016279;28;20198;-88
2023/05/10 21:16:37;;;;;;;2.92;1.90;;;10.60;99.90;;;;;;5033846;28;20210;-88
2023/05/10 21:34:53;;;;;;;3.20;2.78;;;10.80;99.90;;;;;;1189587;22;20501;-86
2023/05/10 21:37:20;;;;;;;4.22;3.50;;;10.80;99.90;;;;;;4971919;28;20581;-89
2023/05/10 21:39:47;;;;;;;3.30;1.40;;;10.70;99.90;;;;;;4974594;28;20636;-88
2023/05/10 21:42:14;;;;;;;5.63;5.03;;;10.60;99.90;;;;;;4973034;28;20204;-89
2023/05/10 21:44:41;;;;;;;1.40;1.30;;;10.60;99.90;;;;;;4977808;28;20207;-84
2023/05/10 21:47:08;;;;;;;5.18;4.30;;;10.60;99.90;;;;;;4970304;28;20220;-90
2023/05/10 21:49:35;;;;;;;2.95;1.80;;;10.50;99.90;;;;;;4974471;28;20287;-87
2023/05/10 21:52:06;;;;;;;4.07;2.80;;;10.50;99.90;;;;;;4976743;28;20204;-88
2023/05/10 21:54:33;;;;;;;4.57;3.30;;;10.50;99.90;;;;;;4967002;28;20220;-88
2023/05/10 21:57:00;;;;;;;2.13;1.35;;;10.50;99.90;;;;;;4970057;28;20211;-85
2023/05/10 21:59:27;;;;;;;5.10;1.48;;;10.40;99.90;;;;;;4975613;28;20675;-88
2023/05/10 22:01:54;;;;;;;2.10;1.80;;;10.40;99.90;;;;;;4973880;28;20201;-87
2023/05/10 22:04:21;;;;;;;2.38;1.90;;;10.40;99.90;;;;;;4972556;28;20193;-88
2023/05/10 22:06:48;;;;;;;2.38;2.08;;;10.50;99.90;;;;;;4973380;28;20550;-90
2023/05/10 22:09:20;;;;;;;3.28;2.35;;;10.40;99.90;;;;;;4966756;28;20240;-87
2023/05/10 22:11:47;;;;;;;2.95;1.55;;;10.60;99.90;;;;;;4972435;28;20219;-88
2023/05/10 22:14:14;;;;;;;3.15;1.60;;;10.50;99.90;;;;;;4957762;28;20276;-88
2023/05/10 22:16:41;;;;;;;1.73;1.10;;;10.40;99.90;;;;;;4971718;28;20319;-88
2023/05/10 22:19:08;;;;;;;1.95;1.75;;;10.40;99.90;;;;;;4978298;28;20231;-89
2023/05/10 22:21:35;;;;;;;2.33;1.75;;;10.40;99.90;;;;;;5000956;28;20207;-88
2023/05/10 22:24:02;;;;;;;3.95;2.05;;;10.40;99.90;;;;;;5002544;28;20234;-86
2023/05/10 22:26:33;;;;;;;5.78;1.88;;;10.30;99.90;;;;;;4979214;28;20291;-87
2023/05/10 22:29:00;;;;;;;4.35;1.50;;;10.30;99.90;;;;;;4997722;28;20203;-84
2023/05/10 22:31:27;;;;;;;3.60;0.93;;;10.30;99.90;;;;;;4958198;28;20211;-88
2023/05/10 22:33:54;;;;;;;9.75;7.53;;;10.20;99.90;;;;;;4955872;28;20604;-88
2023/05/10 22:36:21;;;;;;;2.72;1.75;;;10.10;99.90;;;;;;4991037;28;20583;-88
2023/05/10 22:38:48;;;;;;;8.68;6.95;;;10.10;99.90;;;;;;4994980;28;20207;-88
2023/05/10 22:41:16;;;;;;;2.90;2.20;;;10.10;99.90;;;;;;4978008;28;20699;-87
2023/05/10 22:43:44;;;;;;;3.38;1.65;;;10.10;99.90;;;;;;4990979;28;20261;-90
2023/05/10 22:46:12;;;;;;;2.72;1.70;;;10.00;99.90;;;;;;4995540;28;20207;-88
2023/05/10 22:48:39;;;;;;;2.58;1.63;;;10.00;99.90;;;;;;4975416;28;20243;-88
2023/05/10 22:51:06;;;;;;;5.13;4.15;;;9.90;99.90;;;;;;4958551;28;20208;-88
2023/05/10 22:53:33;;;;;;;1.05;0.93;;;9.90;99.90;;;;;;4981125;28;20199;-88
2023/05/10 22:56:00;;;;;;;7.22;4.22;;;9.80;99.90;;;;;;4981739;28;20242;-88
2023/05/10 22:58:27;;;;;;;2.70;1.50;;;9.80;99.90;;;;;;4981277;28;20667;-87
2023/05/10 23:00:56;;;;;;;5.60;1.52;;;9.90;99.90;;;;;;4962353;28;20210;-87
2023/05/10 23:03:23;;;;;;;3.00;1.20;;;9.90;99.90;;;;;;4980874;28;20222;-89
2023/05/10 23:05:51;;;;;;;2.28;1.20;;;9.80;99.90;;;;;;4975224;28;20203;-87
2023/05/10 23:08:18;;;;;;;1.73;1.63;;;9.80;99.90;;;;;;4994560;28;20204;-87
2023/05/10 23:10:45;;;;;;;5.25;3.15;;;9.80;99.90;;;;;;4992672;28;20207;-87
2023/05/10 23:13:12;;;;;;;2.22;1.00;;;9.90;99.90;;;;;;4993491;28;20203;-87
2023/05/10 23:15:39;;;;;;;6.53;2.90;;;9.80;99.90;;;;;;4995080;28;20223;-87
2023/05/10 23:18:08;;;;;;;2.17;1.10;;;9.80;99.90;;;;;;4977559;28;20273;-88
2023/05/10 23:20:35;;;;;;;2.10;1.77;;;9.80;99.90;;;;;;4993304;28;20204;-87
2023/05/10 23:23:02;;;;;;;1.48;1.38;;;9.70;99.90;;;;;;4993130;28;20208;-87
2023/05/10 23:25:31;;;;;;;4.53;2.03;;;9.70;99.90;;;;;;4986241;28;20677;-88
2023/05/10 23:27:58;;;;;;;1.77;1.50;;;9.70;99.90;;;;;;4993968;28;20208;-87
2023/05/10 23:30:25;;;;;;;2.05;1.80;;;9.80;99.90;;;;;;4970170;28;20640;-86
2023/05/10 23:32:52;;;;;;;1.83;1.52;;;9.80;99.90;;;;;;4990526;28;20231;-88
2023/05/10 23:35:21;;;;;;;3.83;1.88;;;9.80;99.90;;;;;;4981525;28;20232;-89
2023/05/10 23:37:48;;;;;;;4.05;1.85;;;9.80;99.90;;;;;;4978034;28;20675;-87
2023/05/10 23:40:15;;;;;;;2.20;1.55;;;9.80;99.90;;;;;;5002390;28;20262;-87
2023/05/10 23:42:42;;;;;;;2.80;2.45;;;9.70;99.90;;;;;;4993862;28;20215;-87
2023/05/10 23:45:10;;;;;;;1.60;1.30;;;9.70;99.90;;;;;;4978446;28;20203;-87
2023/05/10 23:47:37;;;;;;;2.35;1.60;;;9.80;99.90;;;;;;4993232;28;20246;-87
2023/05/10 23:50:05;;;;;;;1.63;1.52;;;9.80;99.90;;;;;;4976601;28;20210;-87
2023/05/10 23:52:33;;;;;;;2.17;1.30;;;9.80;99.90;;;;;;4970517;28;20207;-87
2023/05/10 23:55:01;;;;;;;1.52;1.15;;;9.70;99.90;;;;;;4978995;28;20262;-87
2023/05/10 23:57:28;;;;;;;1.38;1.23;;;9.70;99.90;;;;;;4978359;28;20196;-87
2023/05/10 23:59:55;;;;;;;1.85;1.05;;;9.70;99.90;;;;;;4983904;28;20239;-88
